sensor_id;sensor_type;location;lat;lon;timestamp;P1;durP1;ratioP1;P2;durP2;ratioP2
19312;SDS011;9791;50.820;4.406;2023-05-07T00:00:59;8.77;;;4.05;;
19312;SDS011;9791;50.820;4.406;2023-05-07T00:03:26;9.25;;;3.38;;
19312;SDS011;9791;50.820;4.406;2023-05-07T00:05:52;10.25;;;3.38;;
19312;SDS011;9791;50.820;4.406;2023-05-07T00:08:18;8.77;;;3.78;;
19312;SDS011;9791;50.820;4.406;2023-05-07T00:10:45;9.80;;;3.60;;
19312;SDS011;9791;50.820;4.406;2023-05-07T00:13:11;9.70;;;3.38;;
19312;SDS011;9791;50.820;4.406;2023-05-07T00:15:37;9.93;;;3.20;;
19312;SDS011;9791;50.820;4.406;2023-05-07T00:18:04;8.07;;;3.28;;
19312;SDS011;9791;50.820;4.406;2023-05-07T00:20:30;8.52;;;3.65;;
19312;SDS011;9791;50.820;4.406;2023-05-07T00:22:56;10.15;;;3.80;;
19312;SDS011;9791;50.820;4.406;2023-05-07T00:25:22;7.82;;;3.53;;
19312;SDS011;9791;50.820;4.406;2023-05-07T00:27:48;8.45;;;3.80;;
19312;SDS011;9791;50.820;4.406;2023-05-07T00:30:14;13.55;;;4.18;;
19312;SDS011;9791;50.820;4.406;2023-05-07T00:32:40;8.88;;;3.65;;
19312;SDS011;9791;50.820;4.406;2023-05-07T00:35:06;8.38;;;3.72;;
19312;SDS011;9791;50.820;4.406;2023-05-07T00:37:33;8.52;;;3.60;;
19312;SDS011;9791;50.820;4.406;2023-05-07T00:39:59;11.85;;;3.97;;
19312;SDS011;9791;50.820;4.406;2023-05-07T00:42:25;9.30;;;3.35;;
19312;SDS011;9791;50.820;4.406;2023-05-07T00:44:51;9.05;;;2.88;;
19312;SDS011;9791;50.820;4.406;2023-05-07T00:47:17;9.63;;;3.63;;
19312;SDS011;9791;50.820;4.406;2023-05-07T00:49:43;8.23;;;2.72;;
19312;SDS011;9791;50.820;4.406;2023-05-07T00:52:13;8.80;;;3.33;;
19312;SDS011;9791;50.820;4.406;2023-05-07T00:54:42;10.57;;;3.60;;
19312;SDS011;9791;50.820;4.406;2023-05-07T00:57:09;6.22;;;2.90;;
19312;SDS011;9791;50.820;4.406;2023-05-07T00:59:36;7.30;;;3.10;;
19312;SDS011;9791;50.820;4.406;2023-05-07T01:02:02;8.20;;;3.40;;
19312;SDS011;9791;50.820;4.406;2023-05-07T01:04:28;8.05;;;3.63;;
19312;SDS011;9791;50.820;4.406;2023-05-07T01:06:55;9.18;;;3.08;;
19312;SDS011;9791;50.820;4.406;2023-05-07T01:09:22;7.03;;;2.80;;
19312;SDS011;9791;50.820;4.406;2023-05-07T01:11:49;11.57;;;4.13;;
19312;SDS011;9791;50.820;4.406;2023-05-07T01:14:16;9.40;;;3.28;;
19312;SDS011;9791;50.820;4.406;2023-05-07T01:16:43;9.43;;;3.53;;
19312;SDS011;9791;50.820;4.406;2023-05-07T01:19:09;6.20;;;2.78;;
19312;SDS011;9791;50.820;4.406;2023-05-07T01:21:38;11.50;;;3.45;;
19312;SDS011;9791;50.820;4.406;2023-05-07T01:24:06;10.30;;;3.90;;
19312;SDS011;9791;50.820;4.406;2023-05-07T01:26:33;7.70;;;3.35;;
19312;SDS011;9791;50.820;4.406;2023-05-07T01:28:59;14.73;;;4.35;;
19312;SDS011;9791;50.820;4.406;2023-05-07T01:31:25;7.60;;;3.45;;
19312;SDS011;9791;50.820;4.406;2023-05-07T01:33:52;8.75;;;3.22;;
19312;SDS011;9791;50.820;4.406;2023-05-07T01:36:19;8.57;;;3.40;;
19312;SDS011;9791;50.820;4.406;2023-05-07T01:38:46;8.10;;;3.50;;
19312;SDS011;9791;50.820;4.406;2023-05-07T01:41:12;10.27;;;3.58;;
19312;SDS011;9791;50.820;4.406;2023-05-07T01:43:39;8.50;;;3.55;;
19312;SDS011;9791;50.820;4.406;2023-05-07T01:46:06;9.82;;;3.42;;
19312;SDS011;9791;50.820;4.406;2023-05-07T01:48:32;8.15;;;3.63;;
19312;SDS011;9791;50.820;4.406;2023-05-07T01:50:58;10.80;;;3.80;;
19312;SDS011;9791;50.820;4.406;2023-05-07T01:53:26;8.50;;;3.55;;
19312;SDS011;9791;50.820;4.406;2023-05-07T01:55:52;5.97;;;2.95;;
19312;SDS011;9791;50.820;4.406;2023-05-07T01:58:18;7.10;;;3.30;;
19312;SDS011;9791;50.820;4.406;2023-05-07T02:00:45;9.57;;;3.15;;
19312;SDS011;9791;50.820;4.406;2023-05-07T02:03:11;8.07;;;3.22;;
19312;SDS011;9791;50.820;4.406;2023-05-07T02:05:37;9.00;;;3.38;;
19312;SDS011;9791;50.820;4.406;2023-05-07T02:08:03;8.05;;;3.10;;
19312;SDS011;9791;50.820;4.406;2023-05-07T02:10:29;9.82;;;3.00;;
19312;SDS011;9791;50.820;4.406;2023-05-07T02:12:55;8.27;;;3.25;;
19312;SDS011;9791;50.820;4.406;2023-05-07T02:15:21;9.15;;;3.20;;
19312;SDS011;9791;50.820;4.406;2023-05-07T02:20:28;8.65;;;2.55;;
19312;SDS011;9791;50.820;4.406;2023-05-07T02:22:54;9.80;;;3.15;;
19312;SDS011;9791;50.820;4.406;2023-05-07T02:25:20;9.73;;;3.28;;
19312;SDS011;9791;50.820;4.406;2023-05-07T02:27:46;7.28;;;2.78;;
19312;SDS011;9791;50.820;4.406;2023-05-07T02:30:13;8.77;;;3.33;;
19312;SDS011;9791;50.820;4.406;2023-05-07T02:32:39;10.68;;;3.42;;
19312;SDS011;9791;50.820;4.406;2023-05-07T02:35:05;7.32;;;2.85;;
19312;SDS011;9791;50.820;4.406;2023-05-07T02:37:31;7.32;;;3.08;;
19312;SDS011;9791;50.820;4.406;2023-05-07T02:39:57;7.25;;;2.58;;
19312;SDS011;9791;50.820;4.406;2023-05-07T02:42:23;10.40;;;4.30;;
19312;SDS011;9791;50.820;4.406;2023-05-07T02:44:49;8.65;;;3.22;;
19312;SDS011;9791;50.820;4.406;2023-05-07T02:47:18;6.07;;;3.05;;
19312;SDS011;9791;50.820;4.406;2023-05-07T02:49:44;8.77;;;2.90;;
19312;SDS011;9791;50.820;4.406;2023-05-07T02:52:10;10.65;;;3.70;;
19312;SDS011;9791;50.820;4.406;2023-05-07T02:54:36;8.23;;;3.53;;
19312;SDS011;9791;50.820;4.406;2023-05-07T02:57:02;11.95;;;3.78;;
19312;SDS011;9791;50.820;4.406;2023-05-07T02:59:28;6.35;;;3.00;;
19312;SDS011;9791;50.820;4.406;2023-05-07T03:01:55;6.30;;;3.08;;
19312;SDS011;9791;50.820;4.406;2023-05-07T03:04:21;8.02;;;3.25;;
19312;SDS011;9791;50.820;4.406;2023-05-07T03:06:47;7.38;;;3.15;;
19312;SDS011;9791;50.820;4.406;2023-05-07T03:09:13;10.93;;;3.30;;
19312;SDS011;9791;50.820;4.406;2023-05-07T03:11:39;6.63;;;2.90;;
19312;SDS011;9791;50.820;4.406;2023-05-07T03:14:05;10.43;;;3.10;;
19312;SDS011;9791;50.820;4.406;2023-05-07T03:16:31;10.07;;;3.10;;
19312;SDS011;9791;50.820;4.406;2023-05-07T03:18:57;8.63;;;3.80;;
19312;SDS011;9791;50.820;4.406;2023-05-07T03:21:23;8.45;;;3.20;;
19312;SDS011;9791;50.820;4.406;2023-05-07T03:23:49;8.50;;;3.42;;
19312;SDS011;9791;50.820;4.406;2023-05-07T03:26:15;7.68;;;3.22;;
19312;SDS011;9791;50.820;4.406;2023-05-07T03:28:41;7.85;;;3.15;;
19312;SDS011;9791;50.820;4.406;2023-05-07T03:31:07;9.48;;;3.10;;
19312;SDS011;9791;50.820;4.406;2023-05-07T03:33:33;10.20;;;3.67;;
19312;SDS011;9791;50.820;4.406;2023-05-07T03:36:02;7.43;;;3.30;;
19312;SDS011;9791;50.820;4.406;2023-05-07T03:38:28;9.07;;;3.60;;
19312;SDS011;9791;50.820;4.406;2023-05-07T03:40:54;7.07;;;3.35;;
19312;SDS011;9791;50.820;4.406;2023-05-07T03:43:20;9.93;;;3.63;;
19312;SDS011;9791;50.820;4.406;2023-05-07T03:45:46;6.72;;;3.15;;
19312;SDS011;9791;50.820;4.406;2023-05-07T03:48:12;7.80;;;2.92;;
19312;SDS011;9791;50.820;4.406;2023-05-07T03:50:38;7.38;;;3.33;;
19312;SDS011;9791;50.820;4.406;2023-05-07T03:53:04;11.40;;;3.45;;
19312;SDS011;9791;50.820;4.406;2023-05-07T03:55:30;8.52;;;3.38;;
19312;SDS011;9791;50.820;4.406;2023-05-07T03:57:56;6.53;;;2.95;;
19312;SDS011;9791;50.820;4.406;2023-05-07T04:00:22;9.27;;;3.08;;
19312;SDS011;9791;50.820;4.406;2023-05-07T04:02:48;8.90;;;3.13;;
19312;SDS011;9791;50.820;4.406;2023-05-07T04:05:14;7.63;;;3.05;;
19312;SDS011;9791;50.820;4.406;2023-05-07T04:07:40;9.70;;;3.60;;
19312;SDS011;9791;50.820;4.406;2023-05-07T04:10:07;6.57;;;3.40;;
19312;SDS011;9791;50.820;4.406;2023-05-07T04:12:33;9.55;;;3.47;;
19312;SDS011;9791;50.820;4.406;2023-05-07T04:14:59;9.80;;;3.20;;
19312;SDS011;9791;50.820;4.406;2023-05-07T04:17:25;9.55;;;3.33;;
19312;SDS011;9791;50.820;4.406;2023-05-07T04:19:51;6.45;;;3.25;;
19312;SDS011;9791;50.820;4.406;2023-05-07T04:22:17;7.65;;;3.10;;
19312;SDS011;9791;50.820;4.406;2023-05-07T04:24:43;9.55;;;3.85;;
19312;SDS011;9791;50.820;4.406;2023-05-07T04:27:09;6.43;;;3.05;;
19312;SDS011;9791;50.820;4.406;2023-05-07T04:29:35;8.88;;;3.58;;
19312;SDS011;9791;50.820;4.406;2023-05-07T04:32:01;5.45;;;2.95;;
19312;SDS011;9791;50.820;4.406;2023-05-07T04:34:27;8.10;;;3.45;;
19312;SDS011;9791;50.820;4.406;2023-05-07T04:36:53;10.35;;;3.35;;
19312;SDS011;9791;50.820;4.406;2023-05-07T04:39:19;7.60;;;3.05;;
19312;SDS011;9791;50.820;4.406;2023-05-07T04:41:45;9.20;;;3.42;;
19312;SDS011;9791;50.820;4.406;2023-05-07T04:44:11;7.63;;;3.13;;
19312;SDS011;9791;50.820;4.406;2023-05-07T04:46:37;6.50;;;3.17;;
19312;SDS011;9791;50.820;4.406;2023-05-07T04:49:04;6.45;;;3.08;;
19312;SDS011;9791;50.820;4.406;2023-05-07T04:51:30;8.25;;;3.13;;
19312;SDS011;9791;50.820;4.406;2023-05-07T04:53:57;6.55;;;3.08;;
19312;SDS011;9791;50.820;4.406;2023-05-07T04:56:23;7.03;;;2.53;;
19312;SDS011;9791;50.820;4.406;2023-05-07T04:58:49;6.57;;;2.67;;
19312;SDS011;9791;50.820;4.406;2023-05-07T05:01:16;7.53;;;2.75;;
19312;SDS011;9791;50.820;4.406;2023-05-07T05:03:42;9.05;;;2.55;;
19312;SDS011;9791;50.820;4.406;2023-05-07T05:06:09;7.30;;;2.67;;
19312;SDS011;9791;50.820;4.406;2023-05-07T05:08:35;7.20;;;2.53;;
19312;SDS011;9791;50.820;4.406;2023-05-07T05:11:01;7.22;;;2.50;;
19312;SDS011;9791;50.820;4.406;2023-05-07T05:13:28;6.07;;;2.28;;
19312;SDS011;9791;50.820;4.406;2023-05-07T05:15:55;5.32;;;2.35;;
19312;SDS011;9791;50.820;4.406;2023-05-07T05:18:21;9.25;;;2.85;;
19312;SDS011;9791;50.820;4.406;2023-05-07T05:20:47;7.40;;;2.90;;
19312;SDS011;9791;50.820;4.406;2023-05-07T05:23:13;7.68;;;2.90;;
19312;SDS011;9791;50.820;4.406;2023-05-07T05:25:39;9.18;;;2.90;;
19312;SDS011;9791;50.820;4.406;2023-05-07T05:28:05;6.72;;;2.58;;
19312;SDS011;9791;50.820;4.406;2023-05-07T05:30:31;7.65;;;2.70;;
19312;SDS011;9791;50.820;4.406;2023-05-07T05:32:57;6.15;;;2.65;;
19312;SDS011;9791;50.820;4.406;2023-05-07T05:35:23;6.72;;;2.65;;
19312;SDS011;9791;50.820;4.406;2023-05-07T05:37:49;6.97;;;2.38;;
19312;SDS011;9791;50.820;4.406;2023-05-07T05:40:16;8.63;;;3.33;;
19312;SDS011;9791;50.820;4.406;2023-05-07T05:42:42;7.95;;;3.13;;
19312;SDS011;9791;50.820;4.406;2023-05-07T05:45:09;7.13;;;2.55;;
19312;SDS011;9791;50.820;4.406;2023-05-07T05:47:35;7.43;;;2.80;;
19312;SDS011;9791;50.820;4.406;2023-05-07T05:50:01;6.45;;;2.70;;
19312;SDS011;9791;50.820;4.406;2023-05-07T05:52:27;7.95;;;2.80;;
19312;SDS011;9791;50.820;4.406;2023-05-07T05:54:53;8.85;;;3.15;;
19312;SDS011;9791;50.820;4.406;2023-05-07T05:57:19;6.68;;;2.55;;
19312;SDS011;9791;50.820;4.406;2023-05-07T05:59:46;5.97;;;2.70;;
19312;SDS011;9791;50.820;4.406;2023-05-07T06:02:12;7.32;;;3.58;;
19312;SDS011;9791;50.820;4.406;2023-05-07T06:04:39;9.98;;;3.50;;
19312;SDS011;9791;50.820;4.406;2023-05-07T06:07:06;8.90;;;3.15;;
19312;SDS011;9791;50.820;4.406;2023-05-07T06:09:32;8.40;;;3.30;;
19312;SDS011;9791;50.820;4.406;2023-05-07T06:11:58;6.20;;;2.90;;
19312;SDS011;9791;50.820;4.406;2023-05-07T06:14:24;8.10;;;3.05;;
19312;SDS011;9791;50.820;4.406;2023-05-07T06:16:50;6.43;;;2.83;;
19312;SDS011;9791;50.820;4.406;2023-05-07T06:19:16;8.95;;;2.95;;
19312;SDS011;9791;50.820;4.406;2023-05-07T06:21:47;9.45;;;3.47;;
19312;SDS011;9791;50.820;4.406;2023-05-07T06:24:13;14.27;;;4.57;;
19312;SDS011;9791;50.820;4.406;2023-05-07T06:26:40;11.07;;;3.80;;
19312;SDS011;9791;50.820;4.406;2023-05-07T06:29:06;14.68;;;4.00;;
19312;SDS011;9791;50.820;4.406;2023-05-07T06:31:32;11.60;;;3.53;;
19312;SDS011;9791;50.820;4.406;2023-05-07T06:33:58;10.10;;;3.83;;
19312;SDS011;9791;50.820;4.406;2023-05-07T06:36:24;10.23;;;3.75;;
19312;SDS011;9791;50.820;4.406;2023-05-07T06:38:51;8.20;;;3.80;;
19312;SDS011;9791;50.820;4.406;2023-05-07T06:41:17;8.57;;;3.45;;
19312;SDS011;9791;50.820;4.406;2023-05-07T06:43:43;9.18;;;3.75;;
19312;SDS011;9791;50.820;4.406;2023-05-07T06:46:09;8.85;;;2.95;;
19312;SDS011;9791;50.820;4.406;2023-05-07T06:48:35;7.10;;;2.85;;
19312;SDS011;9791;50.820;4.406;2023-05-07T06:51:01;9.30;;;3.17;;
19312;SDS011;9791;50.820;4.406;2023-05-07T06:53:27;8.20;;;3.20;;
19312;SDS011;9791;50.820;4.406;2023-05-07T06:55:55;7.20;;;3.30;;
19312;SDS011;9791;50.820;4.406;2023-05-07T06:58:21;8.57;;;3.42;;
19312;SDS011;9791;50.820;4.406;2023-05-07T07:00:47;8.20;;;3.20;;
19312;SDS011;9791;50.820;4.406;2023-05-07T07:03:13;7.57;;;3.10;;
19312;SDS011;9791;50.820;4.406;2023-05-07T07:05:42;6.20;;;3.03;;
19312;SDS011;9791;50.820;4.406;2023-05-07T07:08:09;10.27;;;3.88;;
19312;SDS011;9791;50.820;4.406;2023-05-07T07:10:35;10.23;;;3.85;;
19312;SDS011;9791;50.820;4.406;2023-05-07T07:13:01;6.90;;;2.80;;
19312;SDS011;9791;50.820;4.406;2023-05-07T07:15:27;6.35;;;2.65;;
19312;SDS011;9791;50.820;4.406;2023-05-07T07:17:53;7.30;;;3.08;;
19312;SDS011;9791;50.820;4.406;2023-05-07T07:20:19;6.53;;;2.83;;
19312;SDS011;9791;50.820;4.406;2023-05-07T07:22:45;7.80;;;3.05;;
19312;SDS011;9791;50.820;4.406;2023-05-07T07:25:11;7.47;;;2.97;;
19312;SDS011;9791;50.820;4.406;2023-05-07T07:27:37;6.95;;;3.28;;
19312;SDS011;9791;50.820;4.406;2023-05-07T07:30:05;7.72;;;2.90;;
19312;SDS011;9791;50.820;4.406;2023-05-07T07:32:31;7.75;;;3.22;;
19312;SDS011;9791;50.820;4.406;2023-05-07T07:34:58;8.48;;;3.38;;
19312;SDS011;9791;50.820;4.406;2023-05-07T07:37:24;5.78;;;2.55;;
19312;SDS011;9791;50.820;4.406;2023-05-07T07:39:50;7.82;;;2.63;;
19312;SDS011;9791;50.820;4.406;2023-05-07T07:42:16;6.80;;;2.75;;
19312;SDS011;9791;50.820;4.406;2023-05-07T07:44:43;6.20;;;2.42;;
19312;SDS011;9791;50.820;4.406;2023-05-07T07:47:09;7.70;;;3.13;;
19312;SDS011;9791;50.820;4.406;2023-05-07T07:49:35;6.00;;;2.05;;
19312;SDS011;9791;50.820;4.406;2023-05-07T07:52:01;8.90;;;2.80;;
19312;SDS011;9791;50.820;4.406;2023-05-07T07:54:27;6.43;;;2.58;;
19312;SDS011;9791;50.820;4.406;2023-05-07T07:56:54;5.70;;;2.42;;
19312;SDS011;9791;50.820;4.406;2023-05-07T07:59:20;5.50;;;2.22;;
19312;SDS011;9791;50.820;4.406;2023-05-07T08:01:46;5.70;;;2.53;;
19312;SDS011;9791;50.820;4.406;2023-05-07T08:04:15;8.30;;;2.70;;
19312;SDS011;9791;50.820;4.406;2023-05-07T08:06:41;6.35;;;2.50;;
19312;SDS011;9791;50.820;4.406;2023-05-07T08:09:07;8.27;;;2.35;;
19312;SDS011;9791;50.820;4.406;2023-05-07T08:11:33;8.88;;;2.58;;
19312;SDS011;9791;50.820;4.406;2023-05-07T08:13:59;7.25;;;2.40;;
19312;SDS011;9791;50.820;4.406;2023-05-07T08:16:25;8.70;;;2.67;;
19312;SDS011;9791;50.820;4.406;2023-05-07T08:18:52;5.32;;;2.72;;
19312;SDS011;9791;50.820;4.406;2023-05-07T08:21:18;5.65;;;2.50;;
19312;SDS011;9791;50.820;4.406;2023-05-07T08:23:45;8.02;;;2.60;;
19312;SDS011;9791;50.820;4.406;2023-05-07T08:26:11;5.88;;;2.60;;
19312;SDS011;9791;50.820;4.406;2023-05-07T08:28:37;6.90;;;2.80;;
19312;SDS011;9791;50.820;4.406;2023-05-07T08:31:04;6.70;;;2.33;;
19312;SDS011;9791;50.820;4.406;2023-05-07T08:33:30;6.55;;;2.60;;
19312;SDS011;9791;50.820;4.406;2023-05-07T08:35:56;10.57;;;3.05;;
19312;SDS011;9791;50.820;4.406;2023-05-07T08:38:23;6.25;;;2.58;;
19312;SDS011;9791;50.820;4.406;2023-05-07T08:40:49;5.45;;;2.70;;
19312;SDS011;9791;50.820;4.406;2023-05-07T08:43:15;5.55;;;2.33;;
19312;SDS011;9791;50.820;4.406;2023-05-07T08:45:42;5.50;;;2.50;;
19312;SDS011;9791;50.820;4.406;2023-05-07T08:48:15;6.20;;;1.98;;
19312;SDS011;9791;50.820;4.406;2023-05-07T08:50:42;4.90;;;2.10;;
19312;SDS011;9791;50.820;4.406;2023-05-07T08:53:08;6.32;;;2.58;;
19312;SDS011;9791;50.820;4.406;2023-05-07T08:55:34;5.22;;;2.33;;
19312;SDS011;9791;50.820;4.406;2023-05-07T08:58:00;5.50;;;2.22;;
19312;SDS011;9791;50.820;4.406;2023-05-07T09:00:26;5.43;;;1.98;;
19312;SDS011;9791;50.820;4.406;2023-05-07T09:02:52;6.30;;;2.65;;
19312;SDS011;9791;50.820;4.406;2023-05-07T09:05:19;4.88;;;1.80;;
19312;SDS011;9791;50.820;4.406;2023-05-07T09:07:45;5.57;;;2.03;;
19312;SDS011;9791;50.820;4.406;2023-05-07T09:10:11;6.00;;;2.20;;
19312;SDS011;9791;50.820;4.406;2023-05-07T09:12:38;4.40;;;1.85;;
19312;SDS011;9791;50.820;4.406;2023-05-07T09:15:05;6.20;;;2.63;;
19312;SDS011;9791;50.820;4.406;2023-05-07T09:17:31;6.88;;;2.00;;
19312;SDS011;9791;50.820;4.406;2023-05-07T09:20:04;5.00;;;2.38;;
19312;SDS011;9791;50.820;4.406;2023-05-07T09:22:33;4.68;;;1.95;;
19312;SDS011;9791;50.820;4.406;2023-05-07T09:24:59;7.03;;;2.65;;
19312;SDS011;9791;50.820;4.406;2023-05-07T09:27:25;5.63;;;2.38;;
19312;SDS011;9791;50.820;4.406;2023-05-07T09:29:53;6.10;;;2.30;;
19312;SDS011;9791;50.820;4.406;2023-05-07T09:32:19;8.10;;;2.33;;
19312;SDS011;9791;50.820;4.406;2023-05-07T09:34:45;6.18;;;2.50;;
19312;SDS011;9791;50.820;4.406;2023-05-07T09:37:12;6.90;;;2.22;;
19312;SDS011;9791;50.820;4.406;2023-05-07T09:39:45;6.03;;;2.35;;
19312;SDS011;9791;50.820;4.406;2023-05-07T09:42:11;7.18;;;2.33;;
19312;SDS011;9791;50.820;4.406;2023-05-07T09:44:39;7.40;;;2.40;;
19312;SDS011;9791;50.820;4.406;2023-05-07T09:47:05;6.80;;;2.33;;
19312;SDS011;9791;50.820;4.406;2023-05-07T09:49:35;5.43;;;2.03;;
19312;SDS011;9791;50.820;4.406;2023-05-07T09:52:03;7.03;;;2.40;;
19312;SDS011;9791;50.820;4.406;2023-05-07T09:54:31;6.22;;;2.67;;
19312;SDS011;9791;50.820;4.406;2023-05-07T09:56:57;5.75;;;2.00;;
19312;SDS011;9791;50.820;4.406;2023-05-07T09:59:24;7.40;;;2.50;;
19312;SDS011;9791;50.820;4.406;2023-05-07T10:01:51;8.40;;;2.60;;
19312;SDS011;9791;50.820;4.406;2023-05-07T10:04:18;7.80;;;2.65;;
19312;SDS011;9791;50.820;4.406;2023-05-07T10:06:44;5.63;;;2.22;;
19312;SDS011;9791;50.820;4.406;2023-05-07T10:09:10;6.47;;;2.75;;
19312;SDS011;9791;50.820;4.406;2023-05-07T10:11:36;5.60;;;2.00;;
19312;SDS011;9791;50.820;4.406;2023-05-07T10:14:03;5.95;;;1.83;;
19312;SDS011;9791;50.820;4.406;2023-05-07T10:16:31;4.32;;;1.88;;
19312;SDS011;9791;50.820;4.406;2023-05-07T10:18:58;5.13;;;1.95;;
19312;SDS011;9791;50.820;4.406;2023-05-07T10:21:24;6.65;;;1.90;;
19312;SDS011;9791;50.820;4.406;2023-05-07T10:24:13;4.38;;;2.08;;
19312;SDS011;9791;50.820;4.406;2023-05-07T10:26:42;4.80;;;1.75;;
19312;SDS011;9791;50.820;4.406;2023-05-07T10:29:18;4.47;;;1.95;;
19312;SDS011;9791;50.820;4.406;2023-05-07T10:31:50;5.95;;;2.33;;
19312;SDS011;9791;50.820;4.406;2023-05-07T10:34:21;6.10;;;2.10;;
19312;SDS011;9791;50.820;4.406;2023-05-07T10:36:47;4.47;;;1.60;;
19312;SDS011;9791;50.820;4.406;2023-05-07T10:39:14;6.78;;;2.00;;
19312;SDS011;9791;50.820;4.406;2023-05-07T10:41:40;5.28;;;1.70;;
19312;SDS011;9791;50.820;4.406;2023-05-07T10:44:06;6.90;;;2.70;;
19312;SDS011;9791;50.820;4.406;2023-05-07T10:46:32;5.57;;;2.08;;
19312;SDS011;9791;50.820;4.406;2023-05-07T10:51:31;6.07;;;1.70;;
19312;SDS011;9791;50.820;4.406;2023-05-07T10:56:40;3.85;;;1.60;;
19312;SDS011;9791;50.820;4.406;2023-05-07T11:04:25;6.25;;;1.83;;
19312;SDS011;9791;50.820;4.406;2023-05-07T11:15:03;5.03;;;1.83;;
19312;SDS011;9791;50.820;4.406;2023-05-07T11:17:33;4.10;;;1.60;;
19312;SDS011;9791;50.820;4.406;2023-05-07T11:20:00;7.47;;;1.80;;
19312;SDS011;9791;50.820;4.406;2023-05-07T11:22:47;4.38;;;1.80;;
19312;SDS011;9791;50.820;4.406;2023-05-07T11:25:17;5.05;;;1.58;;
19312;SDS011;9791;50.820;4.406;2023-05-07T11:27:44;5.15;;;1.50;;
19312;SDS011;9791;50.820;4.406;2023-05-07T11:30:10;4.60;;;1.80;;
19312;SDS011;9791;50.820;4.406;2023-05-07T11:32:43;3.42;;;1.70;;
19312;SDS011;9791;50.820;4.406;2023-05-07T11:35:09;4.90;;;1.60;;
19312;SDS011;9791;50.820;4.406;2023-05-07T11:37:35;3.67;;;1.70;;
19312;SDS011;9791;50.820;4.406;2023-05-07T11:40:07;6.75;;;1.77;;
19312;SDS011;9791;50.820;4.406;2023-05-07T11:42:38;3.65;;;1.55;;
19312;SDS011;9791;50.820;4.406;2023-05-07T11:45:08;4.32;;;1.50;;
19312;SDS011;9791;50.820;4.406;2023-05-07T11:47:35;3.75;;;1.10;;
19312;SDS011;9791;50.820;4.406;2023-05-07T11:50:07;3.72;;;1.15;;
19312;SDS011;9791;50.820;4.406;2023-05-07T11:52:35;3.25;;;1.30;;
19312;SDS011;9791;50.820;4.406;2023-05-07T11:55:02;5.15;;;1.60;;
19312;SDS011;9791;50.820;4.406;2023-05-07T11:57:32;4.47;;;1.50;;
19312;SDS011;9791;50.820;4.406;2023-05-07T11:59:59;3.85;;;1.85;;
19312;SDS011;9791;50.820;4.406;2023-05-07T12:02:27;4.10;;;1.45;;
19312;SDS011;9791;50.820;4.406;2023-05-07T12:04:54;3.75;;;1.38;;
19312;SDS011;9791;50.820;4.406;2023-05-07T12:07:20;4.05;;;1.30;;
19312;SDS011;9791;50.820;4.406;2023-05-07T12:09:46;2.33;;;1.15;;
19312;SDS011;9791;50.820;4.406;2023-05-07T12:12:13;5.32;;;1.30;;
19312;SDS011;9791;50.820;4.406;2023-05-07T12:14:43;4.45;;;1.30;;
19312;SDS011;9791;50.820;4.406;2023-05-07T12:17:10;3.83;;;1.15;;
19312;SDS011;9791;50.820;4.406;2023-05-07T12:19:36;3.15;;;1.40;;
19312;SDS011;9791;50.820;4.406;2023-05-07T12:22:03;4.47;;;1.45;;
19312;SDS011;9791;50.820;4.406;2023-05-07T12:24:42;3.47;;;1.40;;
19312;SDS011;9791;50.820;4.406;2023-05-07T12:27:08;3.33;;;1.30;;
19312;SDS011;9791;50.820;4.406;2023-05-07T12:29:34;4.85;;;1.75;;
19312;SDS011;9791;50.820;4.406;2023-05-07T12:32:03;4.50;;;1.70;;
19312;SDS011;9791;50.820;4.406;2023-05-07T12:34:30;3.88;;;1.30;;
19312;SDS011;9791;50.820;4.406;2023-05-07T12:36:56;4.00;;;1.52;;
19312;SDS011;9791;50.820;4.406;2023-05-07T12:39:23;3.35;;;1.17;;
19312;SDS011;9791;50.820;4.406;2023-05-07T12:41:52;4.22;;;1.48;;
19312;SDS011;9791;50.820;4.406;2023-05-07T12:44:21;3.28;;;1.45;;
19312;SDS011;9791;50.820;4.406;2023-05-07T12:46:47;4.13;;;1.52;;
19312;SDS011;9791;50.820;4.406;2023-05-07T12:49:13;3.67;;;1.52;;
19312;SDS011;9791;50.820;4.406;2023-05-07T12:51:40;4.45;;;1.63;;
19312;SDS011;9791;50.820;4.406;2023-05-07T12:54:06;4.65;;;1.83;;
19312;SDS011;9791;50.820;4.406;2023-05-07T12:56:35;4.82;;;1.75;;
19312;SDS011;9791;50.820;4.406;2023-05-07T12:59:02;3.72;;;1.60;;
19312;SDS011;9791;50.820;4.406;2023-05-07T13:01:29;4.47;;;2.00;;
19312;SDS011;9791;50.820;4.406;2023-05-07T13:03:57;3.97;;;2.10;;
19312;SDS011;9791;50.820;4.406;2023-05-07T13:06:26;5.13;;;2.50;;
19312;SDS011;9791;50.820;4.406;2023-05-07T13:08:52;4.57;;;2.58;;
19312;SDS011;9791;50.820;4.406;2023-05-07T13:11:18;4.72;;;2.85;;
19312;SDS011;9791;50.820;4.406;2023-05-07T13:13:45;5.97;;;3.47;;
19312;SDS011;9791;50.820;4.406;2023-05-07T13:16:11;5.00;;;3.00;;
19312;SDS011;9791;50.820;4.406;2023-05-07T13:18:38;5.45;;;3.70;;
19312;SDS011;9791;50.820;4.406;2023-05-07T13:21:04;7.30;;;4.18;;
19312;SDS011;9791;50.820;4.406;2023-05-07T13:23:30;5.20;;;3.83;;
19312;SDS011;9791;50.820;4.406;2023-05-07T13:25:56;5.25;;;3.65;;
19312;SDS011;9791;50.820;4.406;2023-05-07T13:28:23;5.70;;;3.33;;
19312;SDS011;9791;50.820;4.406;2023-05-07T13:30:49;4.82;;;3.42;;
19312;SDS011;9791;50.820;4.406;2023-05-07T13:33:17;6.45;;;4.05;;
19312;SDS011;9791;50.820;4.406;2023-05-07T13:35:43;6.72;;;4.00;;
19312;SDS011;9791;50.820;4.406;2023-05-07T13:38:09;7.20;;;3.75;;
19312;SDS011;9791;50.820;4.406;2023-05-07T13:40:35;6.88;;;3.97;;
19312;SDS011;9791;50.820;4.406;2023-05-07T13:43:01;6.38;;;3.40;;
19312;SDS011;9791;50.820;4.406;2023-05-07T13:45:28;6.68;;;4.03;;
19312;SDS011;9791;50.820;4.406;2023-05-07T13:47:57;7.32;;;4.07;;
19312;SDS011;9791;50.820;4.406;2023-05-07T13:50:23;6.13;;;4.05;;
19312;SDS011;9791;50.820;4.406;2023-05-07T13:52:51;7.90;;;4.18;;
19312;SDS011;9791;50.820;4.406;2023-05-07T13:55:18;6.45;;;4.43;;
19312;SDS011;9791;50.820;4.406;2023-05-07T13:57:44;6.53;;;4.70;;
19312;SDS011;9791;50.820;4.406;2023-05-07T14:00:10;6.93;;;4.68;;
19312;SDS011;9791;50.820;4.406;2023-05-07T14:02:37;6.35;;;4.60;;
19312;SDS011;9791;50.820;4.406;2023-05-07T14:05:03;6.25;;;5.10;;
19312;SDS011;9791;50.820;4.406;2023-05-07T14:07:29;6.50;;;4.55;;
19312;SDS011;9791;50.820;4.406;2023-05-07T14:09:56;6.05;;;4.03;;
19312;SDS011;9791;50.820;4.406;2023-05-07T14:12:22;6.95;;;4.28;;
19312;SDS011;9791;50.820;4.406;2023-05-07T14:14:49;7.15;;;4.95;;
19312;SDS011;9791;50.820;4.406;2023-05-07T14:17:16;7.18;;;5.30;;
19312;SDS011;9791;50.820;4.406;2023-05-07T14:19:42;6.70;;;4.80;;
19312;SDS011;9791;50.820;4.406;2023-05-07T14:22:08;7.03;;;5.82;;
19312;SDS011;9791;50.820;4.406;2023-05-07T14:24:35;8.73;;;5.28;;
19312;SDS011;9791;50.820;4.406;2023-05-07T14:27:01;8.20;;;5.30;;
19312;SDS011;9791;50.820;4.406;2023-05-07T14:29:27;7.35;;;5.65;;
19312;SDS011;9791;50.820;4.406;2023-05-07T14:31:53;7.85;;;5.60;;
19312;SDS011;9791;50.820;4.406;2023-05-07T14:34:19;7.63;;;5.55;;
19312;SDS011;9791;50.820;4.406;2023-05-07T14:36:45;7.28;;;5.38;;
19312;SDS011;9791;50.820;4.406;2023-05-07T14:39:12;8.07;;;5.10;;
19312;SDS011;9791;50.820;4.406;2023-05-07T14:41:38;6.38;;;4.47;;
19312;SDS011;9791;50.820;4.406;2023-05-07T14:44:04;8.02;;;5.22;;
19312;SDS011;9791;50.820;4.406;2023-05-07T14:46:30;8.70;;;5.57;;
19312;SDS011;9791;50.820;4.406;2023-05-07T14:48:56;8.40;;;5.82;;
19312;SDS011;9791;50.820;4.406;2023-05-07T14:51:22;8.45;;;5.63;;
19312;SDS011;9791;50.820;4.406;2023-05-07T14:53:49;7.13;;;4.82;;
19312;SDS011;9791;50.820;4.406;2023-05-07T14:56:16;9.18;;;5.32;;
19312;SDS011;9791;50.820;4.406;2023-05-07T14:58:42;7.13;;;4.93;;
19312;SDS011;9791;50.820;4.406;2023-05-07T15:01:08;6.95;;;5.15;;
19312;SDS011;9791;50.820;4.406;2023-05-07T15:03:35;8.00;;;5.32;;
19312;SDS011;9791;50.820;4.406;2023-05-07T15:06:01;7.07;;;4.60;;
19312;SDS011;9791;50.820;4.406;2023-05-07T15:08:27;7.95;;;4.82;;
19312;SDS011;9791;50.820;4.406;2023-05-07T15:10:54;6.57;;;4.30;;
19312;SDS011;9791;50.820;4.406;2023-05-07T15:13:20;8.77;;;4.93;;
19312;SDS011;9791;50.820;4.406;2023-05-07T15:15:46;8.23;;;4.68;;
19312;SDS011;9791;50.820;4.406;2023-05-07T15:18:12;7.82;;;4.63;;